Аэропорт: Уйташ. Махачкала

ICAO: URML

METAR:
2024-07-24 15:30:00
URML 241530Z 20003MPS 9999 FEW///CB 27/21 Q1003 R32/01//70 TEMPO VRB07G15MPS -TSRA BKN050CB RMK QFE751/1002
TAF:
2024-07-24 14:00:00
TAF URML 241400Z 2415/2424 26004G11MPS 9999 SCT050CB 
  TEMPO 2415/2421 VRB07G15MPS 6000 -TSRA BKN040CB